createdAt,value
2022-09-12T00:01:39.467Z,101273.59
2022-09-12T00:04:27.029Z,101275.41
2022-09-12T00:07:13.482Z,101275.47
2022-09-12T00:10:00.343Z,101264.97
2022-09-12T00:12:46.902Z,101270.44
2022-09-12T00:15:34.286Z,101267.97
2022-09-12T00:18:22.345Z,101269.69
2022-09-12T00:21:09.220Z,101266.00
2022-09-12T00:23:56.866Z,101266.75
2022-09-12T00:26:43.398Z,101268.56
2022-09-12T00:29:30.149Z,101267.69
2022-09-12T00:32:17.035Z,101264.41
2022-09-12T00:35:05.823Z,101263.66
2022-09-12T00:37:52.263Z,101267.31
2022-09-12T00:40:39.057Z,101270.91
2022-09-12T00:43:38.384Z,101262.25
2022-09-12T00:46:35.848Z,101263.34
2022-09-12T00:49:28.187Z,101256.38
2022-09-12T00:52:21.827Z,101261.91
2022-09-12T00:55:13.950Z,101256.75
2022-09-12T00:58:04.885Z,101263.00
2022-09-12T01:00:51.852Z,101271.94
2022-09-12T01:03:39.728Z,101258.72
2022-09-12T01:06:29.758Z,101245.66
2022-09-12T01:09:21.634Z,101262.19
2022-09-12T01:12:09.740Z,101260.31
2022-09-12T01:14:56.322Z,101266.47
2022-09-12T01:17:55.220Z,101254.84
2022-09-12T01:21:14.511Z,101255.66
2022-09-12T01:24:35.677Z,101260.22
2022-09-12T01:27:43.866Z,101264.69
2022-09-12T01:30:51.637Z,101265.53
2022-09-12T01:33:57.376Z,101268.09
2022-09-12T01:36:56.128Z,101254.84
2022-09-12T01:39:52.306Z,101260.13
2022-09-12T01:42:48.398Z,101254.13
2022-09-12T01:45:40.275Z,101256.78
2022-09-12T01:48:33.453Z,101256.56
2022-09-12T01:51:26.333Z,101256.75
2022-09-12T01:54:18.581Z,101236.88
2022-09-12T01:57:12.196Z,101249.91
2022-09-12T02:00:03.805Z,101251.81
2022-09-12T02:03:04.150Z,101249.31
2022-09-12T02:05:57.617Z,101251.06
2022-09-12T02:08:48.897Z,101251.03
2022-09-12T02:11:39.778Z,101258.88
2022-09-12T02:14:30.139Z,101259.03
2022-09-12T02:17:22.178Z,101258.13
2022-09-12T02:20:26.028Z,101246.59
2022-09-12T02:23:25.789Z,101255.28
2022-09-12T02:26:19.093Z,101256.09
2022-09-12T02:29:06.231Z,101252.47
2022-09-12T02:31:58.528Z,101245.34
2022-09-12T02:34:52.551Z,101242.78
2022-09-12T02:37:52.406Z,101248.94
2022-09-12T02:40:40.560Z,101242.75
2022-09-12T02:43:27.473Z,101235.78
2022-09-12T02:46:21.130Z,101243.81
2022-09-12T02:49:09.425Z,101247.38
2022-09-12T02:51:56.774Z,101240.38
2022-09-12T02:54:44.774Z,101246.72
2022-09-12T02:57:33.030Z,101248.72
2022-09-12T03:00:19.525Z,101251.50
2022-09-12T03:03:22.936Z,101256.09
2022-09-12T03:06:17.412Z,101250.97
2022-09-12T03:09:13.659Z,101246.66
2022-09-12T03:12:09.638Z,101241.31
2022-09-12T03:15:13.442Z,101253.53
2022-09-12T03:18:11.565Z,101246.41
2022-09-12T03:21:03.761Z,101246.41
2022-09-12T03:24:03.821Z,101249.00
2022-09-12T03:26:56.100Z,101246.28
2022-09-12T03:29:44.862Z,101248.91
2022-09-12T03:32:43.543Z,101244.56
2022-09-12T03:35:31.178Z,101244.66
2022-09-12T03:38:18.334Z,101245.56
2022-09-12T03:41:04.974Z,101243.88
2022-09-12T03:43:51.772Z,101244.72
2022-09-12T03:46:38.469Z,101254.25
2022-09-12T03:49:26.733Z,101245.59
2022-09-12T03:52:13.624Z,101251.78
2022-09-12T03:55:00.261Z,101249.34
2022-09-12T03:57:46.941Z,101251.25
2022-09-12T04:00:33.725Z,101257.50
2022-09-12T04:03:20.370Z,101254.94
2022-09-12T04:06:09.402Z,101256.72
2022-09-12T04:08:56.471Z,101261.94
2022-09-12T04:11:43.293Z,101262.00
2022-09-12T04:14:30.393Z,101262.06
2022-09-12T04:17:17.399Z,101255.81
2022-09-12T04:20:04.629Z,101256.63
2022-09-12T04:22:52.455Z,101260.09
2022-09-12T04:25:39.182Z,101265.38
2022-09-12T04:28:26.779Z,101265.41
2022-09-12T04:31:15.800Z,101262.81
2022-09-12T04:34:02.735Z,101271.75
2022-09-12T04:36:49.380Z,101266.50
2022-09-12T04:39:37.712Z,101263.06
2022-09-12T04:42:24.621Z,101261.38
2022-09-12T04:45:13.230Z,101272.84
2022-09-12T04:48:00.118Z,101275.50
2022-09-12T04:50:46.879Z,101279.03
2022-09-12T04:53:33.552Z,101276.41
2022-09-12T04:56:22.520Z,101270.25
2022-09-12T04:59:09.806Z,101272.97
2022-09-12T05:01:56.413Z,101271.22
2022-09-12T05:04:43.171Z,101273.88
2022-09-12T05:07:29.883Z,101265.94
2022-09-12T05:10:16.848Z,101278.16
2022-09-12T05:13:05.001Z,101274.44
2022-09-12T05:15:58.474Z,101278.72
2022-09-12T05:18:46.810Z,101282.97
2022-09-12T05:21:34.389Z,101281.00
2022-09-12T05:24:21.109Z,101272.06
2022-09-12T05:27:07.865Z,101276.41
2022-09-12T05:29:56.858Z,101283.34
2022-09-12T05:32:43.264Z,101284.25
2022-09-12T05:35:30.291Z,101288.63
2022-09-12T05:38:17.008Z,101285.00
2022-09-12T05:41:06.367Z,101289.31
2022-09-12T05:43:54.970Z,101289.31
2022-09-12T05:46:44.253Z,101288.25
2022-09-12T05:49:31.028Z,101284.63
2022-09-12T05:52:17.941Z,101295.91
2022-09-12T05:55:04.905Z,101295.50
2022-09-12T05:57:52.127Z,101300.41
2022-09-12T06:00:38.795Z,101306.41
2022-09-12T06:03:26.905Z,101307.94
2022-09-12T06:06:14.794Z,101303.41
2022-09-12T06:09:04.146Z,101309.72
2022-09-12T06:11:51.912Z,101314.13
2022-09-12T06:14:38.987Z,101317.69
2022-09-12T06:17:25.525Z,101316.94
2022-09-12T06:20:13.952Z,101314.25
2022-09-12T06:23:00.532Z,101310.50
2022-09-12T06:25:48.420Z,101311.00
2022-09-12T06:28:37.423Z,101312.34
2022-09-12T06:31:27.344Z,101292.84
2022-09-12T06:34:16.189Z,101304.66
2022-09-12T06:37:04.794Z,101314.03
2022-09-12T06:39:51.494Z,101312.84
2022-09-12T06:42:38.269Z,101318.75
2022-09-12T06:45:26.167Z,101322.72
2022-09-12T06:48:12.567Z,101324.50
2022-09-12T06:51:01.191Z,101319.97
2022-09-12T06:53:51.698Z,101315.09
2022-09-12T06:56:38.992Z,101315.78
2022-09-12T06:59:26.015Z,101320.88
2022-09-12T07:02:12.725Z,101323.25
2022-09-12T07:04:59.305Z,101322.97
2022-09-12T07:07:46.033Z,101320.19
2022-09-12T07:10:34.011Z,101312.84
2022-09-12T07:13:21.443Z,101310.78
2022-09-12T07:16:08.798Z,101312.41
2022-09-12T07:18:57.276Z,101312.91
2022-09-12T07:21:43.701Z,101311.81
2022-09-12T07:24:31.730Z,101306.91
2022-09-12T07:27:19.938Z,101302.84
2022-09-12T07:30:08.511Z,101306.75
2022-09-12T07:32:55.178Z,101306.97
2022-09-12T07:35:41.883Z,101308.47
2022-09-12T07:38:28.581Z,101309.19
2022-09-12T07:41:18.066Z,101309.66
2022-09-12T07:44:06.766Z,101307.84
2022-09-12T07:46:53.205Z,101309.75
2022-09-12T07:49:39.984Z,101309.06
2022-09-12T07:52:26.637Z,101307.78
2022-09-12T07:55:13.549Z,101304.91
2022-09-12T07:58:00.439Z,101302.81
2022-09-12T08:00:48.170Z,101304.00
2022-09-12T08:03:34.995Z,101300.28
2022-09-12T08:06:24.281Z,101308.63
2022-09-12T08:09:12.278Z,101307.00
2022-09-12T08:11:59.024Z,101306.69
2022-09-12T08:14:46.613Z,101313.94
2022-09-12T08:17:34.503Z,101308.88
2022-09-12T08:20:23.380Z,101306.81
2022-09-12T08:23:13.097Z,101312.59
2022-09-12T08:26:05.903Z,101308.91
2022-09-12T08:28:53.505Z,101303.38
2022-09-12T08:31:41.457Z,101305.72
2022-09-12T08:34:29.723Z,101301.25
2022-09-12T08:37:16.433Z,101307.44
2022-09-12T08:40:06.837Z,101315.69
2022-09-12T08:43:01.301Z,101310.28
2022-09-12T08:45:55.484Z,101315.34
2022-09-12T08:48:45.551Z,101322.44
2022-09-12T08:51:36.343Z,101317.81
2022-09-12T08:54:26.915Z,101309.94
2022-09-12T08:57:16.336Z,101312.53
2022-09-12T09:00:06.115Z,101313.75
2022-09-12T09:03:34.612Z,101316.06
2022-09-12T09:06:35.374Z,101311.06
2022-09-12T09:09:31.150Z,101309.03
2022-09-12T09:12:23.829Z,101308.88
2022-09-12T09:15:25.155Z,101307.31
2022-09-12T09:18:19.289Z,101297.56
2022-09-12T09:21:23.009Z,101311.81
2022-09-12T09:24:14.662Z,101288.31
2022-09-12T09:27:23.472Z,101306.28
2022-09-12T09:30:18.904Z,101303.41
2022-09-12T09:33:07.659Z,101303.00
2022-09-12T09:36:02.418Z,101308.59
2022-09-12T09:38:51.125Z,101311.91
2022-09-12T09:41:49.556Z,101306.69
2022-09-12T09:44:38.210Z,101308.81
2022-09-12T09:47:24.815Z,101296.50
2022-09-12T09:50:17.031Z,101301.41
2022-09-12T09:53:05.126Z,101290.16
2022-09-12T09:55:55.172Z,101301.53
2022-09-12T09:58:42.227Z,101300.09
2022-09-12T10:01:30.612Z,101295.94
2022-09-12T10:04:22.082Z,101281.41
2022-09-12T10:07:19.422Z,101289.88
2022-09-12T10:10:15.436Z,101285.81
2022-09-12T10:13:11.015Z,101284.91
2022-09-12T10:15:59.384Z,101288.94
2022-09-12T10:18:47.653Z,101288.66
2022-09-12T10:21:41.837Z,101285.31
2022-09-12T10:24:32.218Z,101289.03
2022-09-12T10:27:22.557Z,101271.88
2022-09-12T10:30:19.446Z,101264.25
2022-09-12T10:33:10.060Z,101277.03
2022-09-12T10:36:04.776Z,101278.78
2022-09-12T10:38:54.118Z,101273.38
2022-09-12T10:41:42.511Z,101278.00
2022-09-12T10:44:31.918Z,101271.09
2022-09-12T10:47:24.359Z,101268.22
2022-09-12T10:50:23.372Z,101280.25
2022-09-12T10:53:20.720Z,101270.91
2022-09-12T10:56:10.578Z,101264.00
2022-09-12T10:59:20.224Z,101267.47
2022-09-12T11:02:18.599Z,101264.28
2022-09-12T11:05:12.426Z,101262.63
2022-09-12T11:08:07.849Z,101251.31
2022-09-12T11:11:00.880Z,101253.84
2022-09-12T11:14:06.406Z,101251.44
2022-09-12T11:17:00.264Z,101252.56
2022-09-12T11:20:04.733Z,101249.75
2022-09-12T11:23:20.563Z,101241.47
2022-09-12T11:26:23.299Z,101252.69
2022-09-12T11:29:22.291Z,101246.94
2022-09-12T11:32:45.986Z,101241.75
2022-09-12T11:35:34.640Z,101251.34
2022-09-12T11:38:47.118Z,101249.69
2022-09-12T11:41:38.990Z,101255.47
2022-09-12T11:44:30.762Z,101247.31
2022-09-12T11:47:20.314Z,101247.56
2022-09-12T11:50:18.346Z,101243.47
2022-09-12T11:53:13.024Z,101240.38
2022-09-12T11:56:06.358Z,101241.78
2022-09-12T11:59:00.453Z,101243.94
2022-09-12T12:01:52.120Z,101234.06
2022-09-12T12:04:44.785Z,101231.31
2022-09-12T12:07:43.396Z,101233.59
2022-09-12T12:10:37.851Z,101233.41
2022-09-12T12:13:29.688Z,101234.56
2022-09-12T12:16:24.376Z,101222.94
2022-09-12T12:19:30.127Z,101217.38
2022-09-12T12:22:19.259Z,101224.88
2022-09-12T12:25:38.636Z,101209.34
2022-09-12T12:29:01.070Z,101208.03
2022-09-12T12:32:25.381Z,101204.25
2022-09-12T12:35:42.331Z,101202.28
2022-09-12T12:38:30.761Z,101197.38
2022-09-12T12:41:44.196Z,101204.78
2022-09-12T12:44:51.682Z,101183.03
2022-09-12T12:47:45.289Z,101191.09
2022-09-12T12:50:33.184Z,101201.66
2022-09-12T12:53:25.006Z,101188.78
2022-09-12T12:56:29.407Z,101198.47
2022-09-12T12:59:24.068Z,101196.06
2022-09-12T13:02:22.193Z,101188.38
2022-09-12T13:05:20.501Z,101194.66
2022-09-12T13:08:11.288Z,101190.09
2022-09-12T13:11:02.389Z,101172.63
2022-09-12T13:13:53.511Z,101194.31
2022-09-12T13:16:52.867Z,101184.63
2022-09-12T13:19:41.346Z,101178.97
2022-09-12T13:22:41.066Z,101187.56
2022-09-12T13:25:33.125Z,101184.09
2022-09-12T13:28:21.062Z,101181.66
2022-09-12T13:31:19.505Z,101173.53
2022-09-12T13:34:09.832Z,101184.06
2022-09-12T13:37:27.099Z,101171.41
2022-09-12T13:40:31.509Z,101175.16
2022-09-12T13:43:25.744Z,101169.19
2022-09-12T13:46:17.589Z,101167.47
2022-09-12T13:49:23.532Z,101157.38
2022-09-12T13:52:18.652Z,101157.50
2022-09-12T13:55:09.907Z,101160.78
2022-09-12T13:57:59.279Z,101155.78
2022-09-12T14:00:48.173Z,101157.69
2022-09-12T14:03:58.898Z,101161.25
2022-09-12T14:06:49.706Z,101152.44
2022-09-12T14:09:40.585Z,101153.78
2022-09-12T14:12:31.098Z,101155.03
2022-09-12T14:15:22.238Z,101143.75
2022-09-12T14:18:23.658Z,101143.53
2022-09-12T14:21:13.329Z,101143.63
2022-09-12T14:24:01.865Z,101145.44
2022-09-12T14:26:49.547Z,101144.94
2022-09-12T14:29:37.287Z,101142.38
2022-09-12T14:32:27.562Z,101146.38
2022-09-12T14:35:22.371Z,101140.78
2022-09-12T14:38:15.020Z,101145.50
2022-09-12T14:41:04.478Z,101133.88
2022-09-12T14:43:55.513Z,101136.47
2022-09-12T14:46:44.184Z,101130.41
2022-09-12T14:49:34.714Z,101134.16
2022-09-12T14:52:27.746Z,101136.38
2022-09-12T14:55:30.694Z,101140.56
2022-09-12T14:58:26.323Z,101137.09
2022-09-12T15:01:30.793Z,101127.75
2022-09-12T15:04:41.424Z,101137.00
2022-09-12T15:07:34.685Z,101131.19
2022-09-12T15:10:25.410Z,101133.38
2022-09-12T15:13:21.120Z,101128.28
2022-09-12T15:16:11.120Z,101128.81
2022-09-12T15:18:57.899Z,101126.13
2022-09-12T15:21:44.718Z,101125.47
2022-09-12T15:24:32.786Z,101123.63
2022-09-12T15:27:19.653Z,101128.72
2022-09-12T15:30:07.533Z,101125.47
2022-09-12T15:32:55.018Z,101122.44
2022-09-12T15:35:41.546Z,101120.22
2022-09-12T15:38:28.462Z,101123.69
2022-09-12T15:41:19.847Z,101117.47
2022-09-12T15:44:08.097Z,101114.03
2022-09-12T15:46:54.664Z,101118.78
2022-09-12T15:49:42.026Z,101099.84
2022-09-12T15:52:28.901Z,101105.56
2022-09-12T15:55:18.941Z,101110.75
2022-09-12T15:58:07.483Z,101109.88
2022-09-12T16:00:54.444Z,101103.91
2022-09-12T16:03:41.808Z,101104.81
2022-09-12T16:06:32.491Z,101105.31
2022-09-12T16:09:23.880Z,101099.19
2022-09-12T16:12:10.641Z,101103.22
2022-09-12T16:14:58.938Z,101099.09
2022-09-12T16:17:45.544Z,101104.69
2022-09-12T16:20:32.075Z,101099.69
2022-09-12T16:23:18.885Z,101100.78
2022-09-12T16:26:07.535Z,101100.09
2022-09-12T16:28:56.580Z,101089.78
2022-09-12T16:31:44.980Z,101092.63
2022-09-12T16:34:31.573Z,101084.78
2022-09-12T16:37:18.560Z,101086.75
2022-09-12T16:40:06.876Z,101084.56
2022-09-12T16:42:53.858Z,101091.25
2022-09-12T16:45:40.626Z,101088.03
2022-09-12T16:48:28.723Z,101085.66
2022-09-12T16:51:16.108Z,101073.59
2022-09-12T16:54:02.768Z,101054.13
2022-09-12T16:56:50.071Z,101077.81
2022-09-12T16:59:36.478Z,101072.69
2022-09-12T17:02:23.303Z,101071.19
2022-09-12T17:05:11.562Z,101071.59
2022-09-12T17:07:58.181Z,101067.34
2022-09-12T17:10:45.024Z,101066.69
2022-09-12T17:13:46.847Z,101061.44
2022-09-12T17:16:41.867Z,101057.75
2022-09-12T17:19:30.053Z,101050.66
2022-09-12T17:22:17.859Z,101054.75
2022-09-12T17:25:05.080Z,101042.22
2022-09-12T17:27:51.951Z,101051.25
2022-09-12T17:30:38.832Z,101048.88
2022-09-12T17:33:25.655Z,101050.75
2022-09-12T17:36:15.391Z,101050.91
2022-09-12T17:39:05.068Z,101050.19
2022-09-12T17:41:52.016Z,101044.13
2022-09-12T17:44:38.670Z,101040.81
2022-09-12T17:47:25.410Z,101041.13
2022-09-12T17:50:30.848Z,101048.63
2022-09-12T17:53:18.548Z,101041.84
2022-09-12T17:56:07.834Z,101048.31
2022-09-12T17:58:56.678Z,101051.34
2022-09-12T18:02:00.731Z,101051.63
2022-09-12T18:04:48.606Z,101055.53
2022-09-12T18:07:38.156Z,101061.94
2022-09-12T18:10:27.614Z,101064.81
2022-09-12T18:13:16.283Z,101065.88
2022-09-12T18:16:07.240Z,101063.44
2022-09-12T18:18:53.646Z,101064.50
2022-09-12T18:21:42.551Z,101062.09
2022-09-12T18:24:40.092Z,101068.72
2022-09-12T18:27:26.948Z,101062.16
2022-09-12T18:30:21.406Z,101064.94
2022-09-12T18:33:24.248Z,101061.63
2022-09-12T18:36:13.495Z,101061.88
2022-09-12T18:39:00.778Z,101065.88
2022-09-12T18:41:48.069Z,101067.84
2022-09-12T18:44:35.202Z,101063.56
2022-09-12T18:47:23.471Z,101062.97
2022-09-12T18:50:10.794Z,101058.75
2022-09-12T18:52:59.748Z,101060.69
2022-09-12T18:55:46.978Z,101061.69
2022-09-12T18:58:33.791Z,101061.00
2022-09-12T19:01:22.720Z,101061.13
2022-09-12T19:04:12.774Z,101052.34
2022-09-12T19:06:59.300Z,101046.34
2022-09-12T19:09:46.109Z,101038.53
2022-09-12T19:12:32.941Z,101028.81
2022-09-12T19:15:19.589Z,101032.47
2022-09-12T19:18:06.425Z,101030.94
2022-09-12T19:20:54.709Z,101032.88
2022-09-12T19:23:41.445Z,101024.22
2022-09-12T19:26:29.535Z,101023.47
2022-09-12T19:29:18.293Z,101017.47
2022-09-12T19:32:04.826Z,101021.13
2022-09-12T19:34:51.502Z,101016.03
2022-09-12T19:37:39.650Z,101017.03
2022-09-12T19:40:26.464Z,101020.81
2022-09-12T19:43:13.423Z,101010.47
2022-09-12T19:46:00.638Z,101006.25
2022-09-12T19:48:48.288Z,101013.50
2022-09-12T19:51:34.945Z,101006.63
2022-09-12T19:54:24.652Z,101008.59
2022-09-12T19:57:11.330Z,101016.69
2022-09-12T19:59:58.101Z,101003.63
2022-09-12T20:02:51.328Z,101004.59
2022-09-12T20:05:42.519Z,101011.84
2022-09-12T20:08:29.321Z,101001.47
2022-09-12T20:11:19.207Z,100994.66
2022-09-12T20:14:05.785Z,100991.44
2022-09-12T20:16:52.620Z,100997.72
2022-09-12T20:19:39.439Z,100993.44
2022-09-12T20:22:26.180Z,100993.78
2022-09-12T20:25:12.935Z,100985.19
2022-09-12T20:28:01.246Z,100983.66
2022-09-12T20:30:48.066Z,100982.00
2022-09-12T20:33:35.484Z,100980.31
2022-09-12T20:36:22.347Z,100985.78
2022-09-12T20:39:08.919Z,100980.41
2022-09-12T20:41:55.757Z,100984.97
2022-09-12T20:44:44.039Z,100984.91
2022-09-12T20:47:30.927Z,100981.63
2022-09-12T20:50:17.816Z,100982.66
2022-09-12T20:53:05.416Z,100973.09
2022-09-12T20:55:52.401Z,100978.59
2022-09-12T20:58:43.159Z,100968.28
2022-09-12T21:01:33.015Z,100956.38
2022-09-12T21:04:19.538Z,100965.06
2022-09-12T21:07:06.290Z,100966.91
2022-09-12T21:09:54.333Z,100965.16
2022-09-12T21:12:41.071Z,100970.47
2022-09-12T21:15:28.137Z,100967.88
2022-09-12T21:18:16.106Z,100966.19
2022-09-12T21:21:02.892Z,100967.22
2022-09-12T21:23:50.772Z,100967.38
2022-09-12T21:26:37.610Z,100971.06
2022-09-12T21:29:24.265Z,100964.06
2022-09-12T21:32:14.270Z,100957.00
2022-09-12T21:35:02.433Z,100957.16
2022-09-12T21:37:49.206Z,100961.50
2022-09-12T21:40:35.557Z,100955.34
2022-09-12T21:43:22.269Z,100962.47
2022-09-12T21:46:09.795Z,100956.25
2022-09-12T21:48:56.536Z,100950.06
2022-09-12T21:51:44.634Z,100952.00
2022-09-12T21:54:31.587Z,100951.16
2022-09-12T21:57:18.307Z,100948.53
2022-09-12T22:00:06.500Z,100946.88
2022-09-12T22:02:54.906Z,100940.88
2022-09-12T22:05:41.385Z,100940.75
2022-09-12T22:08:30.927Z,100941.78
2022-09-12T22:11:17.689Z,100929.44
2022-09-12T22:14:04.473Z,100927.69
2022-09-12T22:16:51.980Z,100928.66
2022-09-12T22:19:38.645Z,100918.16
2022-09-12T22:22:42.742Z,100914.69
2022-09-12T22:25:31.257Z,100911.97
2022-09-12T22:28:18.103Z,100909.47
2022-09-12T22:31:05.276Z,100909.47
2022-09-12T22:33:51.951Z,100901.56
2022-09-12T22:36:39.271Z,100897.91
2022-09-12T22:39:25.976Z,100894.44
2022-09-12T22:42:15.089Z,100890.97
2022-09-12T22:45:01.954Z,100888.38
2022-09-12T22:47:49.173Z,100888.31
2022-09-12T22:50:36.052Z,100876.78
2022-09-12T22:53:22.932Z,100873.22
2022-09-12T22:56:10.496Z,100874.94
2022-09-12T22:58:58.592Z,100868.78
2022-09-12T23:01:45.288Z,100861.78
2022-09-12T23:04:33.169Z,100852.19
2022-09-12T23:07:19.847Z,100856.53
2022-09-12T23:10:07.460Z,100845.88
2022-09-12T23:12:55.518Z,100852.09
2022-09-12T23:15:43.835Z,100846.91
2022-09-12T23:18:30.655Z,100838.06
2022-09-12T23:21:19.782Z,100831.97
2022-09-12T23:24:06.682Z,100823.19
2022-09-12T23:26:53.570Z,100828.44
2022-09-12T23:29:40.280Z,100827.63
2022-09-12T23:32:28.649Z,100831.19
2022-09-12T23:35:15.512Z,100827.63
2022-09-12T23:38:04.629Z,100825.72
2022-09-12T23:41:01.292Z,100826.53
2022-09-12T23:43:49.827Z,100826.66
2022-09-12T23:46:37.552Z,100828.53
2022-09-12T23:49:27.527Z,100826.59
2022-09-12T23:52:15.045Z,100812.41
2022-09-12T23:55:03.327Z,100817.56
2022-09-12T23:57:51.087Z,100812.22
